Bradley, West Virginia
Current Conditions -  °F | °C
As of 12:10 PM on Friday 28 Nov 2014 (Local Time) from KBKW Reporting Station
Overcast Overcast  
Wind Chill: 15°   Ceiling: 2200
Heat Index: 24°   Visibility: 9mi
Dew Point: 18°   Wind: 8mph
Humidity: 77%   Direction: 260°W
Pressure: 30.26"   Gusts: NA
Location:  37.86°N, 81.2°W
Report Text: KBKW 281710Z AUTO 26007KT 9SM SCT014 BKN022 OVC026 M04/M08 A3026 RMK AO2 SNE04 P0000 T10441078
Loading
Personal Weather Stations






























Interactive Weather Map New forecast layout! Learn more

10-Day Weather Forecast

Advertisements
Track Severe Weather on mobile